Time;durP1;ratioP1;P1;durP2;ratioP2;P2;SDS_P1;SDS_P2;PMS_P1;PMS_P2;Temp;Humidity;BMP_temperature;BMP_pressure;BME280_temperature;BME280_humidity;BME280_pressure;Samples;Min_cycle;Max_cycle;Signal;HPM_P1;HPM_P2
2022/04/04 00:00:00;;;;;;;0.28;0.28;;;;;;;7.24;79.38;100457.22;4980979;28;20034;-77
2022/04/04 00:02:26;;;;;;;0.25;0.25;;;;;;;7.32;79.97;100453.59;4980930;28;20035;-77
2022/04/04 00:04:51;;;;;;;0.30;0.30;;;;;;;7.39;78.92;100447.53;4981577;28;20037;-77
2022/04/04 00:07:20;;;;;;;0.20;0.20;;;;;;;7.30;79.36;100450.38;4981339;28;20095;-77
2022/04/04 00:09:46;;;;;;;0.20;0.20;;;;;;;7.15;80.13;100431.56;4980741;28;20027;-77
2022/04/04 00:12:12;;;;;;;0.20;0.20;;;;;;;7.22;80.55;100440.16;4978515;28;20079;-77
2022/04/04 00:14:38;;;;;;;0.20;0.20;;;;;;;7.19;80.82;100438.06;4965393;28;20038;-77
2022/04/04 00:17:04;;;;;;;0.28;0.28;;;;;;;7.24;81.02;100437.03;4980963;28;20031;-77
2022/04/04 00:19:35;;;;;;;0.30;0.30;;;;;;;7.31;80.17;100449.22;4981574;28;20027;-77
2022/04/04 00:22:00;;;;;;;0.30;0.30;;;;;;;7.21;80.50;100446.84;4981226;28;20031;-77
2022/04/04 00:24:27;;;;;;;0.25;0.25;;;;;;;7.18;80.13;100444.72;4981371;28;20403;-77
2022/04/04 00:26:57;;;;;;;0.20;0.20;;;;;;;7.24;80.87;100439.81;4980989;28;20058;-77
2022/04/04 00:29:23;;;;;;;0.20;0.20;;;;;;;7.27;80.73;100434.41;4980929;28;20041;-77
2022/04/04 00:31:48;;;;;;;0.25;0.25;;;;;;;7.27;80.89;100439.16;4981699;28;20105;-77
2022/04/04 00:34:14;;;;;;;0.30;0.30;;;;;;;7.24;80.98;100440.59;4984214;28;20062;-78
2022/04/04 00:36:45;;;;;;;0.30;0.30;;;;;;;7.25;80.84;100433.16;4982821;28;20121;-77
2022/04/04 00:39:19;;;;;;;0.20;0.20;;;;;;;7.30;81.35;100431.00;4979562;28;20035;-77
2022/04/04 00:41:48;;;;;;;0.20;0.20;;;;;;;7.26;81.02;100430.03;4979752;28;20038;-77
2022/04/04 00:44:14;;;;;;;0.20;0.20;;;;;;;7.18;81.28;100422.59;4980234;28;20073;-77
2022/04/04 00:46:41;;;;;;;0.22;0.22;;;;;;;7.22;81.07;100425.50;4978499;28;20034;-77
2022/04/04 00:49:08;;;;;;;0.20;0.20;;;;;;;7.29;81.44;100432.13;4979188;28;20027;-77
2022/04/04 00:51:34;;;;;;;0.20;0.20;;;;;;;7.25;81.30;100425.66;4978829;28;20111;-77
2022/04/04 00:54:06;;;;;;;0.20;0.20;;;;;;;7.24;81.55;100424.00;4981778;28;20125;-77
2022/04/04 00:56:33;;;;;;;0.20;0.20;;;;;;;7.35;80.56;100430.81;4980768;28;20023;-77
2022/04/04 00:59:05;;;;;;;0.22;0.22;;;;;;;7.06;80.96;100390.09;4978592;28;20027;-77
2022/04/04 01:01:30;;;;;;;0.20;0.20;;;;;;;7.23;81.65;100436.22;4980656;28;20033;-77
2022/04/04 01:03:56;;;;;;;0.20;0.20;;;;;;;7.23;81.88;100435.41;4978918;28;20030;-77
2022/04/04 01:06:32;;;;;;;0.30;0.30;;;;;;;7.21;81.28;100438.53;4978701;28;20035;-77
2022/04/04 01:09:01;;;;;;;0.20;0.20;;;;;;;7.16;81.73;100427.66;4978848;28;20037;-77
2022/04/04 01:11:27;;;;;;;0.30;0.30;;;;;;;7.28;81.84;100436.03;4978475;28;20054;-78
2022/04/04 01:13:54;;;;;;;0.30;0.30;;;;;;;7.22;81.51;100431.03;4978996;28;20107;-77
2022/04/04 01:16:20;;;;;;;0.30;0.30;;;;;;;7.19;81.10;100427.00;4979226;28;20181;-77
2022/04/04 01:18:48;;;;;;;0.20;0.20;;;;;;;7.13;81.61;100424.72;4962801;28;20051;-77
2022/04/04 01:21:18;;;;;;;0.30;0.30;;;;;;;7.14;82.47;100446.56;4978934;28;20093;-77
2022/04/04 01:23:47;;;;;;;0.20;0.20;;;;;;;7.20;82.78;100434.16;4980481;28;20030;-77
2022/04/04 01:26:13;;;;;;;0.20;0.20;;;;;;;7.27;82.33;100442.72;4978797;28;20073;-77
2022/04/04 01:28:40;;;;;;;0.20;0.20;;;;;;;7.23;81.41;100430.69;4977899;28;20023;-77
2022/04/04 01:31:12;;;;;;;0.20;0.20;;;;;;;7.28;81.73;100435.22;4975195;28;20046;-77
2022/04/04 01:33:37;;;;;;;0.20;0.20;;;;;;;7.27;82.24;100428.88;4975495;28;20031;-77
2022/04/04 01:36:03;;;;;;;0.20;0.20;;;;;;;7.25;82.20;100427.63;4978393;28;20109;-77
2022/04/04 01:38:29;;;;;;;0.20;0.20;;;;;;;7.30;81.96;100417.16;4977831;28;20027;-77
2022/04/04 01:40:58;;;;;;;0.20;0.20;;;;;;;7.31;81.53;100424.31;4978082;28;20110;-77
2022/04/04 01:43:23;;;;;;;0.20;0.20;;;;;;;7.41;81.59;100420.34;4963471;28;20031;-77
2022/04/04 01:48:37;;;;;;;0.20;0.20;;;;;;;7.42;81.43;100429.47;4980278;28;20109;-77
2022/04/04 01:51:04;;;;;;;0.20;0.20;;;;;;;7.45;81.77;100429.56;4963401;28;20057;-77
2022/04/04 01:53:35;;;;;;;0.20;0.20;;;;;;;7.43;81.81;100426.34;4979146;28;20038;-77
2022/04/04 01:56:03;;;;;;;0.20;0.20;;;;;;;7.44;81.66;100424.38;4979229;28;20541;-77
2022/04/04 01:58:30;;;;;;;0.30;0.30;;;;;;;7.45;81.45;100423.22;4980956;28;20023;-77
2022/04/04 02:01:01;;;;;;;0.20;0.20;;;;;;;7.49;81.62;100421.41;4978656;28;20177;-77
2022/04/04 02:03:28;;;;;;;0.30;0.30;;;;;;;7.47;81.27;100415.41;4978626;28;20034;-77
2022/04/04 02:05:54;;;;;;;0.20;0.20;;;;;;;7.50;81.51;100423.03;4974488;28;20461;-77
2022/04/04 02:08:20;;;;;;;0.30;0.30;;;;;;;7.59;80.88;100421.03;4978652;28;20038;-77
2022/04/04 02:10:46;;;;;;;0.30;0.30;;;;;;;7.61;81.23;100433.38;4980912;28;20031;-77
2022/04/04 02:13:12;;;;;;;0.20;0.20;;;;;;;7.57;81.08;100426.91;4982701;28;20030;-77
2022/04/04 02:15:45;;;;;;;0.20;0.20;;;;;;;7.60;81.12;100423.44;4983392;28;20146;-77
2022/04/04 02:18:14;;;;;;;0.28;0.28;;;;;;;7.68;81.04;100420.97;4982007;28;20084;-77
2022/04/04 02:20:42;;;;;;;0.20;0.20;;;;;;;7.73;80.42;100415.22;4982251;28;20098;-77
2022/04/04 02:23:08;;;;;;;0.30;0.30;;;;;;;7.66;80.49;100412.97;4979222;28;20334;-77
2022/04/04 02:25:34;;;;;;;0.22;0.22;;;;;;;7.64;80.90;100414.47;4982080;28;20045;-77
2022/04/04 02:28:00;;;;;;;0.20;0.20;;;;;;;7.61;80.96;100404.88;4982732;28;20469;-77
2022/04/04 02:30:25;;;;;;;0.20;0.20;;;;;;;7.67;81.53;100414.63;4982092;28;20037;-77
2022/04/04 02:32:53;;;;;;;0.30;0.30;;;;;;;7.59;80.90;100418.25;4982019;28;20041;-77
2022/04/04 02:35:19;;;;;;;0.28;0.28;;;;;;;7.64;81.20;100403.41;4982011;28;20030;-77
2022/04/04 02:37:48;;;;;;;0.20;0.20;;;;;;;7.71;79.21;100401.69;4981119;28;20038;-77
2022/04/04 02:40:14;;;;;;;0.30;0.30;;;;;;;7.67;79.91;100414.63;4981499;28;20121;-77
2022/04/04 02:42:40;;;;;;;0.20;0.20;;;;;;;7.68;80.34;100416.25;4982938;28;20030;-77
2022/04/04 02:45:06;;;;;;;0.20;0.20;;;;;;;7.63;80.34;100419.22;4982743;28;20045;-77
2022/04/04 02:47:32;;;;;;;0.20;0.20;;;;;;;7.68;80.30;100424.56;4983378;28;20027;-77
2022/04/04 02:50:00;;;;;;;0.20;0.20;;;;;;;7.62;80.58;100425.91;4983086;28;20110;-77
2022/04/04 02:52:28;;;;;;;0.20;0.20;;;;;;;7.56;79.54;100417.00;4984199;28;20064;-78
2022/04/04 02:54:56;;;;;;;0.20;0.20;;;;;;;7.65;78.88;100416.09;4984093;28;20041;-77
2022/04/04 02:57:22;;;;;;;0.30;0.30;;;;;;;7.55;79.01;100418.09;4998478;28;20034;-77
2022/04/04 02:59:48;;;;;;;0.20;0.20;;;;;;;7.87;77.80;100422.09;4980231;28;20038;-77
2022/04/04 03:02:14;;;;;;;0.20;0.20;;;;;;;7.82;76.79;100422.31;4980084;28;20022;-77
2022/04/04 03:04:42;;;;;;;0.20;0.20;;;;;;;7.77;77.09;100414.19;4981464;28;20030;-77
2022/04/04 03:07:09;;;;;;;0.20;0.20;;;;;;;7.63;77.98;100397.06;4980645;28;20469;-77
2022/04/04 03:09:35;;;;;;;0.20;0.20;;;;;;;7.65;78.24;100400.28;4980747;28;20030;-77
2022/04/04 03:12:04;;;;;;;0.20;0.20;;;;;;;7.57;78.87;100398.41;4977538;28;20062;-77
2022/04/04 03:14:31;;;;;;;0.30;0.30;;;;;;;7.65;79.34;100399.47;4979324;28;20102;-77
2022/04/04 03:17:03;;;;;;;0.20;0.20;;;;;;;7.66;79.91;100401.09;4980744;28;20117;-77
2022/04/04 03:19:29;;;;;;;0.20;0.20;;;;;;;7.69;79.78;100401.25;4981027;28;20102;-77
2022/04/04 03:21:57;;;;;;;0.30;0.30;;;;;;;7.72;79.95;100394.19;4980888;28;20500;-77
2022/04/04 03:24:25;;;;;;;0.30;0.30;;;;;;;7.65;80.17;100399.47;4981604;28;20066;-77
2022/04/04 03:26:50;;;;;;;0.30;0.30;;;;;;;7.67;80.69;100397.16;4980604;28;20058;-77
2022/04/04 03:29:16;;;;;;;0.20;0.20;;;;;;;7.69;80.16;100395.69;4980940;28;20030;-77
2022/04/04 03:31:45;;;;;;;0.20;0.20;;;;;;;7.77;80.12;100391.22;4980402;28;20030;-77
2022/04/04 03:34:13;;;;;;;0.25;0.25;;;;;;;7.59;79.64;100388.59;4980582;28;20474;-77
2022/04/04 03:36:41;;;;;;;0.20;0.20;;;;;;;7.45;80.25;100390.00;4980466;28;20031;-77
2022/04/04 03:39:07;;;;;;;0.20;0.20;;;;;;;7.55;80.07;100406.22;4980444;28;20166;-77
2022/04/04 03:41:33;;;;;;;0.20;0.20;;;;;;;7.63;79.72;100408.13;4980853;28;20077;-77
2022/04/04 03:44:01;;;;;;;0.20;0.20;;;;;;;7.63;80.38;100402.59;4980879;28;20035;-77
2022/04/04 03:46:26;;;;;;;0.20;0.20;;;;;;;7.58;80.50;100395.28;4980555;28;20508;-77
2022/04/04 03:48:52;;;;;;;0.30;0.30;;;;;;;7.63;79.59;100399.03;4983201;28;20031;-77
2022/04/04 03:51:19;;;;;;;0.30;0.30;;;;;;;7.58;79.48;100408.34;4984160;28;20098;-77
2022/04/04 03:53:44;;;;;;;0.20;0.20;;;;;;;7.61;79.23;100407.63;4983685;28;20023;-77
2022/04/04 03:56:11;;;;;;;0.20;0.20;;;;;;;7.63;79.05;100399.81;4983851;28;20041;-77
2022/04/04 03:58:44;;;;;;;0.20;0.20;;;;;;;7.57;79.12;100409.50;4984016;28;20342;-78
2022/04/04 04:01:10;;;;;;;0.20;0.20;;;;;;;7.68;78.99;100416.25;4984394;28;20038;-77
2022/04/04 04:03:36;;;;;;;0.20;0.20;;;;;;;7.56;78.96;100418.91;4984549;28;20062;-77
2022/04/04 04:06:16;;;;;;;0.20;0.20;;;;;;;7.58;79.47;100423.00;4984274;28;20069;-77
2022/04/04 04:08:44;;;;;;;0.20;0.20;;;;;;;7.60;78.95;100414.34;4985033;28;20378;-77
2022/04/04 04:11:14;;;;;;;0.20;0.20;;;;;;;7.61;79.08;100416.75;4982901;28;20500;-77
2022/04/04 04:13:43;;;;;;;0.22;0.22;;;;;;;7.58;78.73;100419.41;4983061;28;20151;-77
2022/04/04 04:16:15;;;;;;;0.20;0.20;;;;;;;7.60;79.14;100420.69;4982074;28;20035;-77
2022/04/04 04:18:41;;;;;;;0.30;0.30;;;;;;;7.47;78.49;100401.56;4983100;28;20019;-77
2022/04/04 04:21:09;;;;;;;0.30;0.30;;;;;;;7.61;78.63;100430.59;4982903;28;20027;-77
2022/04/04 04:23:37;;;;;;;0.30;0.30;;;;;;;7.71;78.55;100436.91;4981691;28;20031;-77
2022/04/04 04:26:08;;;;;;;0.20;0.20;;;;;;;7.64;78.46;100429.13;4980939;28;20038;-77
2022/04/04 04:28:34;;;;;;;0.30;0.30;;;;;;;7.59;79.46;100423.78;4982883;28;20096;-77
2022/04/04 04:31:00;;;;;;;0.20;0.20;;;;;;;7.57;79.92;100426.09;4982256;28;20031;-77
2022/04/04 04:33:27;;;;;;;0.30;0.30;;;;;;;7.53;80.00;100430.69;4982491;28;20484;-77
2022/04/04 04:35:53;;;;;;;0.20;0.20;;;;;;;7.50;79.45;100411.97;4982946;28;20027;-77
2022/04/04 04:38:18;;;;;;;0.20;0.20;;;;;;;7.54;79.37;100433.09;4982583;28;20038;-77
2022/04/04 04:40:44;;;;;;;0.20;0.20;;;;;;;7.48;80.02;100425.34;4982184;28;20465;-77
2022/04/04 04:43:10;;;;;;;0.20;0.20;;;;;;;7.52;80.26;100426.31;4981634;28;20393;-78
2022/04/04 04:45:35;;;;;;;0.20;0.20;;;;;;;7.71;80.24;100426.63;4981431;28;20058;-77
2022/04/04 04:48:01;;;;;;;0.20;0.20;;;;;;;7.61;78.67;100421.50;4980597;28;20489;-77
2022/04/04 04:50:27;;;;;;;0.30;0.30;;;;;;;7.58;79.29;100436.03;4980226;28;20035;-77
2022/04/04 04:52:56;;;;;;;0.20;0.20;;;;;;;7.44;80.10;100433.50;4979866;28;20038;-77
2022/04/04 04:55:23;;;;;;;0.30;0.30;;;;;;;7.42;81.05;100446.88;4982826;28;20031;-77
2022/04/04 04:57:51;;;;;;;0.20;0.20;;;;;;;7.40;81.83;100438.06;4981880;28;20034;-77
2022/04/04 05:00:18;;;;;;;0.20;0.20;;;;;;;7.44;81.96;100435.47;4981675;28;20031;-77
2022/04/04 05:02:44;;;;;;;0.30;0.30;;;;;;;7.45;81.32;100434.31;4980139;28;20030;-77
2022/04/04 05:05:10;;;;;;;0.25;0.25;;;;;;;7.53;80.95;100444.53;4981193;28;20035;-77
2022/04/04 05:07:37;;;;;;;0.30;0.30;;;;;;;7.52;81.24;100440.16;4982139;28;20029;-77
2022/04/04 05:10:05;;;;;;;0.20;0.20;;;;;;;7.55;80.16;100448.56;4981151;28;20037;-77
2022/04/04 05:12:32;;;;;;;0.20;0.20;;;;;;;7.55;80.94;100451.34;4983775;28;20055;-78
2022/04/04 05:15:07;;;;;;;0.20;0.20;;;;;;;7.63;80.40;100452.44;4984024;28;20030;-77
2022/04/04 05:17:33;;;;;;;0.20;0.20;;;;;;;7.62;79.87;100453.59;4980848;28;20034;-77
2022/04/04 05:19:59;;;;;;;0.30;0.30;;;;;;;7.57;79.74;100449.06;4982151;28;20098;-77
2022/04/04 05:22:24;;;;;;;0.20;0.20;;;;;;;7.67;79.70;100453.41;4981194;28;20088;-77
2022/04/04 05:24:50;;;;;;;0.20;0.20;;;;;;;7.66;79.02;100453.72;4978805;28;20027;-77
2022/04/04 05:27:20;;;;;;;0.20;0.20;;;;;;;7.64;78.60;100447.72;4980376;28;20041;-77
2022/04/04 05:29:45;;;;;;;0.20;0.20;;;;;;;7.82;79.77;100455.53;4980638;28;20026;-77
2022/04/04 05:32:11;;;;;;;0.30;0.30;;;;;;;7.68;79.54;100441.16;4980132;28;20529;-77
2022/04/04 05:34:47;;;;;;;0.20;0.20;;;;;;;7.86;79.47;100448.19;4980265;28;20058;-77
2022/04/04 05:37:12;;;;;;;0.20;0.20;;;;;;;7.79;78.25;100428.53;4980430;28;20492;-77
2022/04/04 05:39:41;;;;;;;0.20;0.20;;;;;;;7.87;78.49;100452.56;4980080;28;20035;-77
2022/04/04 05:42:07;;;;;;;0.20;0.20;;;;;;;7.93;78.22;100461.50;4980723;28;20041;-77
2022/04/04 05:44:35;;;;;;;0.28;0.28;;;;;;;7.96;78.16;100465.56;4980990;28;20532;-77
2022/04/04 05:47:04;;;;;;;0.20;0.20;;;;;;;8.01;77.38;100468.94;4979647;28;20027;-77
2022/04/04 05:49:33;;;;;;;0.30;0.30;;;;;;;8.11;77.13;100467.72;4979046;28;20039;-77
2022/04/04 05:52:04;;;;;;;0.20;0.20;;;;;;;8.13;77.53;100459.88;4979636;28;20031;-77
2022/04/04 05:54:31;;;;;;;0.20;0.20;;;;;;;8.32;76.93;100462.94;4979053;28;20065;-77
2022/04/04 05:56:59;;;;;;;0.20;0.20;;;;;;;8.28;76.37;100464.78;4978472;28;20462;-77
2022/04/04 05:59:25;;;;;;;0.30;0.30;;;;;;;8.46;76.20;100459.09;4978909;28;20027;-77
2022/04/04 06:01:51;;;;;;;0.20;0.20;;;;;;;8.53;74.99;100456.59;4979395;28;20379;-77
2022/04/04 06:04:17;;;;;;;0.20;0.20;;;;;;;8.61;74.63;100464.78;4980050;28;20026;-77
2022/04/04 06:06:43;;;;;;;0.20;0.20;;;;;;;8.72;74.20;100462.41;4980398;28;20041;-77
2022/04/04 06:09:08;;;;;;;0.20;0.20;;;;;;;8.82;73.77;100461.94;4979905;28;20027;-77
2022/04/04 06:11:34;;;;;;;0.20;0.20;;;;;;;8.88;72.81;100459.75;4977845;28;20061;-76
2022/04/04 06:14:03;;;;;;;0.20;0.20;;;;;;;8.97;72.56;100470.78;4978934;28;20118;-77
2022/04/04 06:16:30;;;;;;;0.20;0.20;;;;;;;9.01;71.91;100460.59;4979118;28;20034;-77
2022/04/04 06:18:56;;;;;;;0.20;0.20;;;;;;;9.11;71.57;100460.16;4978914;28;20425;-77
2022/04/04 06:21:24;;;;;;;0.20;0.20;;;;;;;9.03;71.39;100450.75;4978442;28;20097;-77
2022/04/04 06:24:04;;;;;;;0.30;0.30;;;;;;;9.13;71.47;100466.97;4980910;28;20038;-77
2022/04/04 06:26:36;;;;;;;0.30;0.30;;;;;;;9.21;70.57;100465.22;4979785;28;20050;-77
2022/04/04 06:29:02;;;;;;;0.20;0.20;;;;;;;9.17;70.54;100459.56;4979266;28;20031;-77
2022/04/04 06:31:41;;;;;;;0.20;0.20;;;;;;;9.18;70.99;100469.50;4978906;28;20122;-77
2022/04/04 06:34:09;;;;;;;0.20;0.20;;;;;;;9.29;71.42;100467.09;4981140;28;20027;-75
2022/04/04 06:36:37;;;;;;;0.20;0.20;;;;;;;9.22;71.91;100466.88;4980377;28;20386;-77
2022/04/04 06:39:08;;;;;;;0.20;0.20;;;;;;;9.22;71.99;100475.19;4979501;28;20042;-77
2022/04/04 06:41:43;;;;;;;0.20;0.20;;;;;;;9.28;71.41;100461.88;4978909;28;20030;-77
2022/04/04 06:44:16;;;;;;;0.20;0.20;;;;;;;9.26;72.22;100466.97;4976037;28;20027;-77
2022/04/04 06:46:44;;;;;;;0.20;0.20;;;;;;;9.26;72.29;100465.00;4976817;28;20031;-77
2022/04/04 06:49:12;;;;;;;0.20;0.20;;;;;;;9.25;72.71;100460.59;4978880;28;20102;-77
2022/04/04 06:51:38;;;;;;;0.20;0.20;;;;;;;9.18;72.55;100438.16;4978619;28;20046;-77
2022/04/04 06:54:07;;;;;;;0.20;0.20;;;;;;;9.11;73.01;100443.50;4978033;28;20030;-77
2022/04/04 06:56:34;;;;;;;0.20;0.20;;;;;;;9.15;73.51;100455.50;4978108;28;20121;-77
2022/04/04 06:59:03;;;;;;;0.20;0.20;;;;;;;9.22;73.47;100461.31;4978664;28;20058;-78
2022/04/04 07:01:31;;;;;;;0.20;0.20;;;;;;;9.20;72.86;100446.94;4978006;28;20046;-77
2022/04/04 07:03:58;;;;;;;0.20;0.20;;;;;;;9.29;73.44;100458.75;4978457;28;20027;-77
2022/04/04 07:06:25;;;;;;;0.20;0.20;;;;;;;9.31;73.08;100459.22;4978866;28;20038;-77
2022/04/04 07:08:51;;;;;;;0.20;0.20;;;;;;;9.37;72.42;100457.00;4979635;28;20414;-77
2022/04/04 07:11:17;;;;;;;0.20;0.20;;;;;;;9.42;71.40;100463.13;4980080;28;20576;-77
2022/04/04 07:13:44;;;;;;;0.30;0.30;;;;;;;9.40;71.56;100457.13;4979494;28;20066;-77
2022/04/04 07:16:18;;;;;;;0.20;0.20;;;;;;;9.47;70.90;100464.06;4980433;28;20031;-77
2022/04/04 07:18:44;;;;;;;0.20;0.20;;;;;;;9.39;71.19;100472.19;4980714;28;20113;-77
2022/04/04 07:21:12;;;;;;;0.30;0.30;;;;;;;9.38;70.43;100465.00;4979473;28;20445;-77
2022/04/04 07:23:40;;;;;;;0.25;0.25;;;;;;;9.48;70.05;100455.41;4979800;28;20030;-77
2022/04/04 07:26:06;;;;;;;0.20;0.20;;;;;;;9.63;69.69;100465.78;4981507;28;20029;-77
2022/04/04 07:28:31;;;;;;;0.30;0.30;;;;;;;9.74;69.00;100474.44;4980912;28;20113;-77
2022/04/04 07:30:58;;;;;;;0.20;0.20;;;;;;;9.82;69.72;100478.25;4981778;28;20035;-76
2022/04/04 07:33:27;;;;;;;0.20;0.20;;;;;;;10.01;69.49;100469.28;4982816;28;20062;-78
2022/04/04 07:35:52;;;;;;;0.30;0.30;;;;;;;10.14;67.82;100476.44;4984878;28;20034;-78
2022/04/04 07:38:18;;;;;;;0.20;0.20;;;;;;;10.25;67.57;100469.25;4981229;28;20026;-77
2022/04/04 07:40:44;;;;;;;0.20;0.20;;;;;;;10.38;67.04;100478.34;4977571;28;20070;-77
2022/04/04 07:43:12;;;;;;;0.20;0.20;;;;;;;10.55;65.86;100472.47;4978967;28;20035;-77
2022/04/04 07:45:38;;;;;;;0.20;0.20;;;;;;;10.66;64.84;100473.56;4978068;28;20035;-77
2022/04/04 07:48:08;;;;;;;0.20;0.20;;;;;;;10.82;62.93;100464.44;4977814;28;20023;-77
2022/04/04 07:50:37;;;;;;;0.20;0.20;;;;;;;10.67;60.90;100466.84;4978075;28;20042;-77
2022/04/04 07:53:03;;;;;;;0.20;0.20;;;;;;;10.94;61.19;100472.72;4977989;28;20488;-77
2022/04/04 07:55:33;;;;;;;0.30;0.30;;;;;;;11.11;59.96;100477.09;4977202;28;20122;-77
2022/04/04 07:57:59;;;;;;;0.20;0.20;;;;;;;11.13;60.13;100478.38;4978111;28;20138;-77
2022/04/04 08:00:24;;;;;;;0.20;0.20;;;;;;;11.36;59.75;100484.13;4979201;28;20098;-77
2022/04/04 08:02:50;;;;;;;0.20;0.20;;;;;;;11.53;58.76;100482.91;4983175;28;20085;-77
2022/04/04 08:05:23;;;;;;;0.30;0.30;;;;;;;11.51;57.74;100490.84;4983339;28;20023;-77
2022/04/04 08:07:51;;;;;;;0.20;0.20;;;;;;;11.66;58.04;100497.53;4984253;28;20038;-77
2022/04/04 08:10:19;;;;;;;0.30;0.30;;;;;;;11.77;58.86;100488.28;4977948;28;20026;-77
2022/04/04 08:12:51;;;;;;;0.20;0.20;;;;;;;11.87;57.74;100506.44;4977746;28;20073;-77
2022/04/04 08:15:17;;;;;;;0.20;0.20;;;;;;;11.73;56.56;100503.31;4979666;28;20126;-77
2022/04/04 08:17:48;;;;;;;0.30;0.30;;;;;;;11.83;58.11;100501.97;4977719;28;20231;-77
2022/04/04 08:20:14;;;;;;;0.20;0.20;;;;;;;11.78;57.24;100489.09;4978861;28;20034;-77
2022/04/04 08:22:42;;;;;;;0.20;0.20;;;;;;;11.72;57.84;100484.97;4979330;28;20035;-77
2022/04/04 08:25:19;;;;;;;0.20;0.20;;;;;;;11.58;57.89;100495.78;4980054;28;20417;-77
2022/04/04 08:27:46;;;;;;;0.30;0.30;;;;;;;11.60;58.15;100499.78;4979926;28;20031;-77
2022/04/04 08:30:17;;;;;;;0.22;0.22;;;;;;;11.61;58.56;100495.03;4981717;28;20031;-77
2022/04/04 08:32:44;;;;;;;0.20;0.20;;;;;;;11.37;58.69;100499.66;4981446;28;20102;-77
2022/04/04 08:35:15;;;;;;;0.30;0.30;;;;;;;11.47;58.03;100507.47;4982403;28;20080;-77
2022/04/04 08:37:43;;;;;;;0.20;0.20;;;;;;;11.21;59.60;100507.22;4981776;28;20173;-77
2022/04/04 08:40:12;;;;;;;0.20;0.20;;;;;;;11.04;59.58;100510.34;4980477;28;20031;-77
2022/04/04 08:42:38;;;;;;;0.20;0.20;;;;;;;11.11;60.51;100502.16;4982117;28;20134;-77
2022/04/04 08:45:06;;;;;;;0.30;0.30;;;;;;;11.14;60.55;100495.91;4981238;28;20031;-77
2022/04/04 08:47:33;;;;;;;0.20;0.20;;;;;;;11.22;60.67;100497.69;4982182;28;20038;-77
2022/04/04 08:50:00;;;;;;;0.30;0.30;;;;;;;11.19;60.90;100501.19;4981386;28;20389;-77
2022/04/04 08:52:27;;;;;;;0.20;0.20;;;;;;;11.14;60.98;100498.69;4981598;28;20027;-77
2022/04/04 08:54:52;;;;;;;0.30;0.30;;;;;;;11.10;60.94;100493.00;4981538;28;20061;-77
2022/04/04 08:57:21;;;;;;;0.20;0.20;;;;;;;11.29;60.60;100486.69;4981184;28;20039;-77
2022/04/04 08:59:47;;;;;;;0.20;0.20;;;;;;;11.18;61.01;100496.78;4980059;28;20385;-77
2022/04/04 09:02:13;;;;;;;0.30;0.30;;;;;;;11.18;60.55;100499.56;4979386;28;20039;-78
2022/04/04 09:04:43;;;;;;;0.20;0.20;;;;;;;11.23;60.96;100499.28;4980059;28;20525;-77
2022/04/04 09:07:11;;;;;;;0.20;0.20;;;;;;;11.30;61.05;100491.13;4978080;28;20469;-77
2022/04/04 09:09:38;;;;;;;0.20;0.20;;;;;;;11.23;60.78;100497.31;4977512;28;20022;-77
2022/04/04 09:12:11;;;;;;;0.20;0.20;;;;;;;11.55;60.98;100498.09;4978484;28;20051;-77
2022/04/04 09:14:49;;;;;;;0.30;0.30;;;;;;;11.54;59.63;100495.69;4978975;28;20065;-77
2022/04/04 09:17:21;;;;;;;0.20;0.20;;;;;;;11.66;58.97;100487.19;4979258;28;20038;-77
2022/04/04 09:19:47;;;;;;;0.20;0.20;;;;;;;11.69;59.18;100491.25;4962100;28;20038;-77
2022/04/04 09:22:18;;;;;;;0.20;0.20;;;;;;;11.99;58.52;100484.00;4979752;28;20038;-76
2022/04/04 09:25:00;;;;;;;0.30;0.30;;;;;;;12.25;57.79;100485.31;4979282;28;20046;-76
2022/04/04 09:27:31;;;;;;;0.20;0.20;;;;;;;12.18;57.04;100486.00;4979637;28;20121;-76
2022/04/04 09:30:04;;;;;;;0.30;0.30;;;;;;;11.92;57.96;100495.00;4981109;28;20037;-76
2022/04/04 09:32:39;;;;;;;0.30;0.30;;;;;;;11.88;58.13;100494.13;4978532;28;20030;-76
2022/04/04 09:35:10;;;;;;;0.30;0.30;;;;;;;11.81;59.06;100485.56;4978516;28;20484;-76
2022/04/04 09:37:43;;;;;;;0.20;0.20;;;;;;;12.09;57.38;100487.38;4979292;28;20081;-76
2022/04/04 09:40:20;;;;;;;0.30;0.30;;;;;;;12.06;57.45;100489.72;4963003;28;20031;-76
2022/04/04 09:42:52;;;;;;;0.22;0.22;;;;;;;11.87;59.38;100489.69;4978542;28;20424;-75
2022/04/04 09:45:20;;;;;;;0.20;0.20;;;;;;;11.99;59.34;100491.56;4980208;28;20054;-76
2022/04/04 09:48:07;;;;;;;0.20;0.20;;;;;;;11.73;58.65;100486.56;4981230;28;20035;-77
2022/04/04 09:50:49;;;;;;;0.20;0.20;;;;;;;11.68;58.57;100490.44;4979817;28;20038;-76
2022/04/04 09:53:29;;;;;;;0.30;0.30;;;;;;;11.81;58.10;100488.34;4981728;28;20035;-76
2022/04/04 09:56:00;;;;;;;0.20;0.20;;;;;;;11.50;59.37;100484.47;4982442;28;20042;-77
2022/04/04 09:58:31;;;;;;;0.20;0.20;;;;;;;11.40;60.86;100487.81;4980129;28;20474;-76
2022/04/04 10:01:02;;;;;;;0.30;0.30;;;;;;;11.26;59.99;100479.09;4976990;28;20038;-77
2022/04/04 10:03:31;;;;;;;0.20;0.20;;;;;;;11.33;60.93;100473.69;4977680;28;20023;-76
2022/04/04 10:06:00;;;;;;;0.20;0.20;;;;;;;11.33;60.29;100476.47;4979662;28;20097;-76
2022/04/04 10:08:26;;;;;;;0.30;0.30;;;;;;;11.24;60.59;100470.28;4978176;28;20037;-76
2022/04/04 10:10:58;;;;;;;0.20;0.20;;;;;;;11.16;61.41;100468.47;4977799;28;20026;-76
2022/04/04 10:13:28;;;;;;;0.20;0.20;;;;;;;11.17;60.80;100470.09;4988018;28;20381;-77
2022/04/04 10:15:54;;;;;;;0.20;0.20;;;;;;;11.08;62.22;100466.69;4988203;28;20469;-76
2022/04/04 10:18:20;;;;;;;0.20;0.20;;;;;;;11.16;62.00;100463.72;4984061;28;20025;-76
2022/04/04 10:20:53;;;;;;;0.20;0.20;;;;;;;11.22;62.75;100461.47;4984245;28;20038;-76
2022/04/04 10:23:20;;;;;;;0.20;0.20;;;;;;;11.29;60.94;100461.63;4983995;28;20093;-76
2022/04/04 10:25:49;;;;;;;0.20;0.20;;;;;;;11.37;61.54;100445.91;5005250;28;20041;-76
2022/04/04 10:28:28;;;;;;;0.20;0.20;;;;;;;11.52;61.69;100454.25;4986747;28;20384;-76
2022/04/04 10:30:58;;;;;;;0.20;0.20;;;;;;;11.63;62.38;100445.31;4986509;28;20034;-76
2022/04/04 10:33:24;;;;;;;0.20;0.20;;;;;;;11.79;63.54;100441.31;4986930;28;20062;-76
2022/04/04 10:36:08;;;;;;;0.30;0.30;;;;;;;11.95;64.52;100438.50;4987272;28;20034;-76
2022/04/04 10:38:49;;;;;;;0.20;0.20;;;;;;;11.99;66.13;100447.75;5003693;28;20030;-76
2022/04/04 10:41:20;;;;;;;0.20;0.20;;;;;;;12.09;67.01;100448.31;5003265;28;20041;-76
2022/04/04 10:43:48;;;;;;;0.20;0.20;;;;;;;12.21;67.02;100431.47;4984704;28;20030;-76
2022/04/04 10:46:19;;;;;;;0.25;0.25;;;;;;;12.29;67.15;100438.78;4986151;28;20034;-76
2022/04/04 10:48:53;;;;;;;0.20;0.20;;;;;;;12.59;68.02;100434.19;4990492;28;20432;-76
2022/04/04 10:51:36;;;;;;;0.20;0.20;;;;;;;12.72;66.80;100425.63;4989132;28;20134;-76
2022/04/04 10:54:10;;;;;;;0.20;0.20;;;;;;;13.07;62.88;100423.47;4986336;28;20041;-76
2022/04/04 10:56:46;;;;;;;0.20;0.20;;;;;;;13.42;61.37;100413.25;4986588;28;20269;-76
2022/04/04 10:59:15;;;;;;;0.20;0.20;;;;;;;13.70;60.68;100418.47;5006790;28;20023;-76
2022/04/04 11:01:48;;;;;;;0.20;0.20;;;;;;;13.71;59.55;100415.28;4989918;28;20057;-76
2022/04/04 11:04:28;;;;;;;0.20;0.20;;;;;;;13.82;58.97;100410.63;5004988;28;20077;-76
2022/04/04 11:10:07;;;;;;;0.25;0.25;;;;;;;13.65;58.26;100411.22;5003376;28;20073;-79
2022/04/04 11:13:04;;;;;;;0.20;0.20;;;;;;;13.22;58.78;100409.78;5004047;28;20068;-76
2022/04/04 11:15:44;;;;;;;0.20;0.20;;;;;;;12.90;57.97;100412.81;4984144;28;20278;-76
2022/04/04 11:18:14;;;;;;;0.20;0.20;;;;;;;13.17;58.80;100410.06;4985418;28;20085;-76
2022/04/04 11:20:47;;;;;;;0.20;0.20;;;;;;;13.34;57.89;100378.81;4983867;28;20046;-76
2022/04/04 11:23:20;;;;;;;0.20;0.20;;;;;;;13.80;57.42;100401.03;4986614;28;20442;-76
2022/04/04 11:25:49;;;;;;;0.20;0.20;;;;;;;13.96;56.21;100398.84;4986112;28;20045;-76
2022/04/04 11:28:15;;;;;;;0.20;0.20;;;;;;;13.94;55.43;100401.19;4985637;28;20033;-76
2022/04/04 11:30:41;;;;;;;0.20;0.20;;;;;;;13.48;52.63;100386.59;4984447;28;20058;-76
2022/04/04 11:33:11;;;;;;;0.20;0.20;;;;;;;13.32;50.80;100375.59;5001902;28;20022;-76
2022/04/04 11:35:42;;;;;;;0.30;0.30;;;;;;;13.08;52.73;100379.59;5001260;28;20038;-77
2022/04/04 11:38:11;;;;;;;0.20;0.20;;;;;;;13.27;53.16;100361.94;4985839;28;20023;-76
2022/04/04 11:40:44;;;;;;;0.28;0.28;;;;;;;13.69;52.41;100364.53;4986998;28;20038;-76
2022/04/04 11:43:14;;;;;;;0.20;0.20;;;;;;;13.93;52.18;100354.84;4985581;28;20092;-76